| time (UTC) | temp F | wind direction | speed knots | gust knots | rain 1hr in | rain 24hr in | rain mn in | humidity % | barometer mb |
| 20260506044543 | 60 | 0 | 0.0 | 0.0 | 0.00 | 0.00 | 0.00 | 89 | 1017.3 |
| 20260506043044 | 61 | 0 | 0.0 | 0.0 | 0.00 | 0.00 | 0.00 | 89 | 1017.3 |
| 20260506041548 | 61 | 0 | 0.0 | 0.0 | 0.00 | 0.00 | 0.00 | 87 | 1017.4 |
| 20260506040056 | 62 | 0 | 0.0 | 0.0 | 0.00 | 0.00 | 0.00 | 86 | 1017.4 |
| 20260506034538 | 62 | 0 | 0.0 | 0.0 | 0.00 | 0.00 | 0.00 | 85 | 1017.5 |
| 20260506033039 | 63 | 0 | 0.0 | 0.0 | 0.00 | 0.00 | 0.00 | 83 | 1017.7 |
| 20260506031553 | 63 | 0 | 0.0 | 0.0 | 0.00 | 0.00 | 0.00 | 84 | 1017.6 |
| 20260506030042 | 64 | 0 | 0.0 | 0.0 | 0.00 | 0.00 | 0.00 | 82 | 1017.9 |
| 20260506024543 | 64 | 0 | 0.0 | 1.7 | 0.00 | 0.00 | 0.00 | 80 | 1017.7 |
| 20260506023039 | 64 | 0 | 0.0 | 0.0 | 0.00 | 0.00 | 0.00 | 80 | 1017.6 |
| 20260506021538 | 65 | 0 | 0.0 | 0.9 | 0.00 | 0.00 | 0.00 | 79 | 1017.8 |
| 20260506020039 | 65 | 0 | 0.0 | 2.6 | 0.00 | 0.00 | 0.00 | 78 | 1017.7 |
| 20260506014544 | 65 | 0 | 0.0 | 1.7 | 0.00 | 0.00 | 0.00 | 77 | 1017.5 |
| 20260506013044 | 66 | 0 | 0.0 | 0.0 | 0.00 | 0.00 | 0.00 | 76 | 1017.6 |
| 20260506011543 | 66 | 0 | 0.0 | 0.9 | 0.00 | 0.00 | 0.00 | 75 | 1017.4 |
| 20260506010043 | 67 | 0 | 0.0 | 2.6 | 0.00 | 0.00 | 0.00 | 75 | 1017.2 |
| 20260506004538 | 67 | 0 | 0.0 | 1.7 | 0.00 | 0.00 | 0.00 | 73 | 1017.1 |
| 20260506003038 | 68 | 0 | 0.0 | 0.0 | 0.00 | 0.00 | 0.00 | 73 | 1017.0 |
| 20260506001537 | 69 | 0 | 0.0 | 0.9 | 0.00 | 0.00 | 0.00 | 71 | 1016.9 |
| 20260506000044 | 69 | 0 | 0.9 | 7.8 | 0.00 | 0.00 | 0.00 | 69 | 1016.9 |
| 20260505234550 | 70 | 0 | 0.0 | 3.5 | 0.00 | 0.00 | 0.00 | 69 | 1016.8 |
| 20260505233042 | 70 | 360 | 0.9 | 5.2 | 0.00 | 0.00 | 0.00 | 68 | 1016.9 |
| 20260505231546 | 71 | 0 | 0.9 | 7.0 | 0.00 | 0.00 | 0.00 | 66 | 1017.0 |
| 20260505230037 | 72 | 360 | 1.7 | 5.2 | 0.00 | 0.00 | 0.00 | 63 | 1017.0 |
| 20260505224544 | 73 | 360 | 1.7 | 7.8 | 0.00 | 0.00 | 0.00 | 62 | 1017.0 |
| 20260505223044 | 73 | 0 | 0.0 | 8.7 | 0.00 | 0.00 | 0.00 | 63 | 1017.0 |
| 20260505221537 | 73 | 360 | 0.9 | 7.0 | 0.00 | 0.00 | 0.00 | 62 | 1016.9 |
| 20260505220043 | 73 | 360 | 0.0 | 8.7 | 0.00 | 0.00 | 0.00 | 63 | 1017.0 |
| 20260505214548 | 74 | 360 | 1.7 | 7.8 | 0.00 | 0.00 | 0.00 | 63 | 1016.8 |
| 20260505213038 | 73 | 360 | 0.9 | 5.2 | 0.00 | 0.00 | 0.00 | 63 | 1016.7 |
| 20260505211535 | 74 | 360 | 0.9 | 8.7 | 0.00 | 0.00 | 0.00 | 62 | 1016.5 |
| 20260505210037 | 74 | 360 | 1.7 | 5.2 | 0.00 | 0.00 | 0.00 | 63 | 1016.7 |
| 20260505204536 | 74 | 0 | 1.7 | 8.7 | 0.00 | 0.00 | 0.00 | 61 | 1017.0 |
| 20260505203039 | 75 | 0 | 1.7 | 7.8 | 0.00 | 0.00 | 0.00 | 62 | 1016.8 |
| 20260505201539 | 75 | 360 | 0.0 | 9.6 | 0.00 | 0.00 | 0.00 | 61 | 1017.0 |
| 20260505200043 | 75 | 360 | 0.9 | 7.0 | 0.00 | 0.00 | 0.00 | 60 | 1016.9 |
| 20260505194538 | 75 | 0 | 0.9 | 8.7 | 0.00 | 0.00 | 0.00 | 60 | 1017.2 |
| 20260505193033 | 75 | 360 | 0.9 | 8.7 | 0.00 | 0.00 | 0.00 | 58 | 1017.5 |
| 20260505191544 | 75 | 360 | 0.9 | 10.4 | 0.00 | 0.00 | 0.00 | 59 | 1017.6 |
| 20260505190043 | 76 | 0 | 2.6 | 8.7 | 0.00 | 0.00 | 0.00 | 57 | 1017.7 |
| 20260505184538 | 76 | 0 | 1.7 | 7.8 | 0.00 | 0.00 | 0.00 | 57 | 1017.7 |
| 20260505183043 | 76 | 360 | 0.9 | 10.4 | 0.00 | 0.00 | 0.00 | 57 | 1017.7 |
| 20260505181546 | 77 | 360 | 2.6 | 7.8 | 0.00 | 0.00 | 0.00 | 55 | 1017.8 |
| 20260505180041 | 77 | 360 | 0.9 | 8.7 | 0.00 | 0.00 | 0.00 | 56 | 1017.9 |
| 20260505174543 | 77 | 0 | 3.5 | 11.3 | 0.00 | 0.00 | 0.00 | 54 | 1017.8 |
| 20260505173038 | 78 | 0 | 0.9 | 5.2 | 0.00 | 0.00 | 0.00 | 53 | 1017.8 |
| 20260505171539 | 77 | 360 | 0.9 | 5.2 | 0.00 | 0.00 | 0.00 | 52 | 1017.7 |
| 20260505170037 | 77 | 360 | 0.9 | 7.8 | 0.00 | 0.00 | 0.00 | 55 | 1018.0 |
| 20260505164537 | 76 | 360 | 0.9 | 7.8 | 0.00 | 0.00 | 0.00 | 55 | 1018.0 |
| 20260505163049 | 76 | 360 | 0.9 | 8.7 | 0.00 | 0.00 | 0.00 | 55 | 1018.2 |
| 20260505161538 | 76 | 360 | 1.7 | 7.8 | 0.00 | 0.00 | 0.00 | 55 | 1018.4 |
| 20260505153043 | 75 | 0 | 2.6 | 7.0 | 0.00 | 0.00 | 0.00 | 56 | 1018.7 |
| 20260505151541 | 74 | 0 | 0.9 | 4.3 | 0.00 | 0.00 | 0.00 | 59 | 1018.8 |
| 20260505124549 | 66 | 0 | 0.0 | 4.3 | 0.00 | 0.00 | 0.00 | 79 | 1018.8 |
| 20260505123045 | 63 | 0 | 0.0 | 1.7 | 0.00 | 0.00 | 0.00 | 82 | 1018.7 |
| 20260505121540 | 61 | 0 | 0.0 | 2.6 | 0.00 | 0.00 | 0.00 | 87 | 1018.6 |
| 20260505120037 | 59 | 0 | 0.0 | 0.0 | 0.00 | 0.00 | 0.00 | 93 | 1018.6 |
| 20260505114537 | 56 | 0 | 0.0 | 0.0 | 0.00 | 0.00 | 0.00 | 95 | 1018.5 |
| 20260505113041 | 55 | 0 | 0.0 | 0.0 | 0.00 | 0.00 | 0.00 | 95 | 1018.3 |
| 20260505111540 | 53 | 0 | 0.0 | 0.0 | 0.00 | 0.00 | 0.00 | 95 | 1018.4 |
| 20260505101538 | 53 | 0 | 0.0 | 0.0 | 0.00 | 0.00 | 0.00 | 93 | 1017.8 |
| 20260505100037 | 53 | 0 | 0.0 | 0.0 | 0.00 | 0.00 | 0.00 | 93 | 1017.5 |
| 20260505094540 | 53 | 0 | 0.0 | 0.0 | 0.00 | 0.00 | 0.00 | 93 | 1017.5 |
| 20260505093043 | 54 | 0 | 0.0 | 0.0 | 0.00 | 0.00 | 0.00 | 93 | 1017.3 |
| 20260505091539 | 54 | 0 | 0.0 | 0.0 | 0.00 | 0.00 | 0.00 | 93 | 1017.1 |
| 20260505090039 | 54 | 0 | 0.0 | 0.0 | 0.00 | 0.00 | 0.00 | 93 | 1017.0 |
| 20260505084535 | 55 | 0 | 0.0 | 0.0 | 0.00 | 0.00 | 0.00 | 92 | 1016.8 |
| 20260505083037 | 55 | 0 | 0.0 | 0.0 | 0.00 | 0.00 | 0.00 | 93 | 1016.8 |
| 20260505081544 | 55 | 0 | 0.0 | 0.0 | 0.00 | 0.00 | 0.00 | 92 | 1016.7 |
| 20260505080038 | 55 | 0 | 0.0 | 0.0 | 0.00 | 0.00 | 0.00 | 91 | 1016.8 |
| 20260505074539 | 55 | 0 | 0.0 | 0.0 | 0.00 | 0.00 | 0.00 | 92 | 1016.6 |
| 20260505073045 | 56 | 0 | 0.0 | 0.0 | 0.00 | 0.00 | 0.00 | 91 | 1016.7 |
| 20260505071549 | 56 | 0 | 0.0 | 0.0 | 0.00 | 0.00 | 0.00 | 90 | 1016.6 |
| 20260505070036 | 56 | 0 | 0.0 | 0.0 | 0.00 | 0.00 | 0.00 | 90 | 1016.6 |
| 20260505064538 | 56 | 0 | 0.0 | 0.0 | 0.00 | 0.00 | 0.00 | 89 | 1016.7 |
| 20260505063041 | 57 | 0 | 0.0 | 0.0 | 0.00 | 0.00 | 0.00 | 89 | 1016.7 |
| 20260505061539 | 57 | 0 | 0.0 | 0.0 | 0.00 | 0.00 | 0.00 | 88 | 1016.7 |
| 20260505060039 | 57 | 0 | 0.0 | 0.0 | 0.00 | 0.00 | 0.00 | 89 | 1016.9 |
| 20260505054551 | 57 | 0 | 0.0 | 0.0 | 0.00 | 0.00 | 0.00 | 87 | 1017.0 |
| 20260505053051 | 57 | 0 | 0.0 | 0.0 | 0.00 | 0.00 | 0.00 | 85 | 1017.1 |
| 20260505051541 | 58 | 0 | 0.0 | 0.0 | 0.00 | 0.00 | 0.00 | 85 | 1017.4 |